<<    Mai 2011    >>
Datum    Temp.       Tempmin      Tempmax    Taup.       Taup.min      Taup.max    Feuchte    Feuchtemin    Feuchtemax    Druck    Druckmin    Druckmax    Regen    Wind    Benmax  
  01.05.2011  15,2    8,5    06:30    22,3    16:01  0,9    -2,4    21:41    4,6    14:28  39,2    25    16:47    56    06:12  1010,9    1009    14:52    1012    06:23  0,0  2,9  19,4  
  02.05.2011  12,2    6,7    06:27    18,2    15:18  -1,1    -2,8    20:39    1,7    12:54  40,8    29    15:05    57    07:13  1011,1    1009    13:21    1013    08:07  0,0  4,8  24,5  
  03.05.2011  10,5    5,2    06:44    16,6    16:17  -2,0    -5,9    21:21    0,0    04:37  43,7    27    16:41    66    04:37  1015,6    1013    00:00    1020    23:21  0,0  4,2  17,3  
  04.05.2011  10,0    2,4    06:05    17,2    16:46  -1,9    -4,8    03:59    0,6    16:18  44,5    31    16:41    66    07:44  1021,8    1019    02:07    1024    21:51  0,0  2,3  16,2  
  05.05.2011  12,7    3,7    05:08    20,4    16:56  0,5    -0,9    00:09    3,1    10:47  46,9    26    15:45    75    06:41  1023,6    1021    17:51    1026    07:51  0,0  1,3  14,0  
  06.05.2011  17,2    9,1    05:46    25,0    16:34  0,9    -1,6    04:04    4,3    12:44  34,5    22    17:17    49    06:20  1020,4    1017    19:21    1022    00:00  0,0  1,3  13,0  
  07.05.2011  21,5    14,1    06:20    29,7    15:04  3,2    0,6    05:13    7,9    13:09  31,0    21    15:18    40    04:04  1017,9    1015    17:05    1019    00:00  0,0  2,2  16,6  
  08.05.2011  22,8    16,7    06:09    30,4    16:33  2,4    -0,2    23:58    4,5    15:32  26,9    19    15:35    34    01:11  1018,2    1017    06:20    1019    07:35  0,0  3,0  23,4  
  09.05.2011  22,0    16,2    23:59    29,0    16:30  3,1    -0,9    01:47    10,0    23:06  30,7    19    15:31    65    23:45  1021,6    1019    00:00    1023    10:20  0,0  2,9  23,0  
  10.05.2011  19,3    13,9    03:59    26,8    16:56  9,5    5,1    09:27    13,3    23:15  56,0    31    16:54    79    23:59  1023,2    1021    22:49    1026    11:50  0,9  1,6  20,2  
  11.05.2011  18,7    13,8    06:22    24,4    15:21  8,3    3,2    21:04    13,3    00:09  54,6    31    15:59    82    06:42  1021,3    1019    17:19    1023    00:04  0,0  2,5  13,7  
  12.05.2011  16,2    11,0    23:59    23,1    15:38  5,0    -0,1    21:46    8,6    09:03  48,9    31    15:20    69    05:44  1018,4    1016    15:19    1022    23:59  0,0  3,4  22,7  
  13.05.2011  15,0    8,1    04:23    22,5    14:58  3,2    0,9    00:02    6,3    10:48  47,5    30    17:29    68    06:39  1021,2    1017    23:04    1024    07:04  0,0  1,2  9,7  
  14.05.2011  14,4    10,0    23:57    19,2    17:21  2,7    -2,1    22:18    6,8    09:59  46,5    28    17:23    64    06:59  1016,7    1015    04:03    1020    22:18  0,0  3,2  20,9  
  15.05.2011  11,6    8,6    05:22    17,9    15:55  5,1    -1,0    00:05    9,4    11:06  65,6    40    16:17    89    10:46  1021,6    1019    05:48    1024    21:18  6,8  2,5  20,9  
  16.05.2011  13,3    9,5    00:00    15,4    11:13  7,2    3,9    00:00    9,8    19:42  66,6    52    10:07    74    23:59  1022,8    1021    18:33    1024    00:00  0,0  2,6  19,8  
  17.05.2011  16,1    12,3    23:59    21,8    16:59  7,8    4,1    17:55    11,1    11:08  60,1    34    16:29    76    01:15  1020,1    1019    05:18    1022    00:00  0,0  2,5  16,6  
  18.05.2011  17,0    10,0    05:51    24,5    16:38  7,7    6,5    11:59    9,8    23:04  57,1    34    16:45    81    06:11  1017,4    1014    18:02    1020    00:00  0,0  1,2  13,7  
  19.05.2011  17,9    13,1    05:36    22,8    16:26  9,9    8,8    00:34    12,0    09:17  61,1    42    16:36    81    06:19  1016,1    1015    00:00    1018    22:17  0,0  2,4  14,8  
  20.05.2011  18,4    12,2    05:12    24,2    16:14  9,7    7,5    16:49    12,2    10:40  59,3    37    16:15    84    05:45  1017,8    1016    18:32    1019    03:17  0,0  1,4  10,8  
  21.05.2011  19,4    13,6    05:19    26,3    17:30  7,2    5,3    21:07    9,5    09:03  46,9    30    17:07    68    08:06  1019,7    1015    21:16    1022    04:17  0,0  2,1  12,2  
  22.05.2011  17,5    13,8    23:57    24,7    13:10  8,6    0,1    19:54    18,6    15:03  58,7    27    19:25    90    14:53  1016,6    1013    13:16    1023    23:59  7,6  2,8  27,4  
  23.05.2011  17,7    10,1    05:16    25,8    16:47  4,0    1,8    00:00    5,9    11:07  42,5    24    16:41    65    06:41  1023,3    1019    18:31    1026    04:16  0,0  2,1  13,0  
  24.05.2011  16,7    11,7    23:59    21,0    16:56  2,8    -3,3    21:44    8,2    10:05  41,3    26    15:39    65    09:58  1023,6    1019    00:31    1029    23:16  0,0  4,0  20,5  
  25.05.2011  16,5    7,6    04:12    24,9    16:33  0,3    -3,0    23:49    3,3    08:58  36,4    21    15:06    59    05:58  1026,1    1018    23:15    1030    01:02  0,0  1,9  15,8  
  26.05.2011  18,4    13,3    05:40    26,4    12:20  1,8    -2,9    00:14    7,5    12:04  33,1    26    00:00    43    23:57  1012,0    1008    11:00    1019    00:00  0,0  4,2  26,6  
  27.05.2011  14,8    11,4    23:59    18,0    14:15  5,1    2,6    00:50    9,1    15:29  52,3    42    00:00    67    23:38  1014,7    1011    01:46    1019    22:15  0,9  4,1  21,2  
  28.05.2011  15,7    8,7    02:58    22,9    15:25  4,8    2,1    21:17    8,2    08:34  51,8    29    16:02    80    03:38  1016,9    1013    20:45    1020    06:45  0,0  2,3  17,6  
  29.05.2011  18,8    13,5    06:29    26,7    16:17  6,4    1,7    00:52    8,3    13:44  45,9    29    16:51    61    06:23  1015,3    1014    00:00    1018    11:15  0,0  3,0  16,2  
  30.05.2011  23,3    13,4    05:21    33,5    17:15  7,4    4,0    20:21    10,2    08:14  41,6    18    16:05    73    05:53  1011,8    1007    18:44    1015    00:00  0,0  2,1  15,8  
  31.05.2011  14,9    12,1    23:43    21,7    00:00  11,2    6,4    00:00    14,6    12:28  80,6    37    00:00    98    09:59  1014,5    1009    00:00    1023    23:30  14,2  2,9  18,0  
 
  Gesamt  16,6  2,4            33,5            4,6  -5,9            18,6            48,1  18            98            1018,5  1007            1030            30,4  2,6  27,4  
 
  Mittelwert  16,6  10,8            23,3            4,6  1,1            8,2            48,1  29,6            68,5            1018,5  1015,4            1021,4            1,0  2,6  17,9  
  Minimum  10,0  2,4            15,4            -2,0  -5,9            0,0            26,9  18,0            34,0            1010,9  1007,0            1012,0            0,0  1,2  9,7  
  Maximum  23,3  16,7            33,5            11,2  8,8            18,6            80,6  52,0            98,0            1026,1  1021,0            1030,0            14,2  4,8  27,4  

  Heie Tage    Tmax >=30C     2  
  Sommertage    Tmax >=25C     10  
  Warme Tage    Tmax >=20C     24  
  Kalte Tage    Tmax  <10C     0  
  Frosttage    Tmin  <0C     0  
  Eistage    Tmax  <0C     0  
  Regentage > 0 mm    5  
  Regentage > 2 mm    3  
  Regentage > 10 mm    1  
  Regentage > 20 mm    0